Time;durP1;ratioP1;P1;durP2;ratioP2;P2;SDS_P1;SDS_P2;PMS_P1;PMS_P2;Temp;Humidity;BMP_temperature;BMP_pressure;BME280_temperature;BME280_humidity;BME280_pressure;Samples;Min_cycle;Max_cycle;Signal;HPM_P1;HPM_P2
2022/03/22 05:32:17;;;;;;;;;25.50;19.75;;;;;13.50;44.90;102468.66;5055484;27;45550;-76
2022/03/22 05:34:42;;;;;;;;;26.00;19.00;;;;;13.47;44.82;102473.25;5055256;28;45420;-77
2022/03/22 05:37:07;;;;;;;;;30.00;21.25;;;;;13.45;45.12;102485.88;5055161;28;45373;-76
2022/03/22 05:39:33;;;;;;;;;20.75;20.50;;;;;13.34;44.65;102467.34;5055309;28;45268;-76
2022/03/22 05:41:58;;;;;;;;;22.25;19.50;;;;;13.40;45.27;102477.06;5055043;28;45398;-75
2022/03/22 05:44:24;;;;;;;;;23.50;20.25;;;;;13.35;45.44;102473.63;5035734;28;45473;-75
2022/03/22 05:46:50;;;;;;;;;25.25;21.00;;;;;13.35;45.61;102476.31;5036925;28;45412;-76
2022/03/22 05:49:15;;;;;;;;;20.00;20.00;;;;;13.37;45.18;102493.31;5040145;28;45397;-75
2022/03/22 05:51:40;;;;;;;;;26.00;21.00;;;;;13.31;45.12;102478.22;5036945;28;46038;-77
2022/03/22 05:54:06;;;;;;;;;21.75;21.00;;;;;13.38;45.14;102501.34;5035792;28;45472;-76
2022/03/22 05:56:31;;;;;;;;;30.75;23.25;;;;;13.22;45.23;102479.38;5034489;28;46294;-76
2022/03/22 05:58:59;;;;;;;;;24.25;19.50;;;;;13.28;45.38;102505.22;5034834;28;45407;-74
2022/03/22 06:01:24;;;;;;;;;25.75;22.50;;;;;13.12;45.26;102482.31;5034599;28;45322;-75
2022/03/22 06:03:50;;;;;;;;;29.75;27.00;;;;;13.09;45.47;102507.56;5034741;28;45466;-76
2022/03/22 06:06:16;;;;;;;;;23.25;20.25;;;;;12.96;45.66;102494.47;5039586;28;45332;-74
2022/03/22 06:08:41;;;;;;;;;30.00;23.25;;;;;12.88;46.15;102502.75;5027530;28;45861;-74
2022/03/22 06:11:07;;;;;;;;;25.00;22.00;;;;;12.79;45.74;102500.31;5052220;28;45268;-75
2022/03/22 06:13:32;;;;;;;;;25.00;23.75;;;;;12.73;46.34;102503.19;5054471;28;45641;-78
2022/03/22 06:15:58;;;;;;;;;20.00;17.75;;;;;12.78;46.46;102512.00;5054978;28;46090;-71
2022/03/22 06:18:23;;;;;;;;;27.75;24.50;;;;;12.81;45.88;102507.44;5054523;28;45330;-74
2022/03/22 06:20:48;;;;;;;;;22.75;20.50;;;;;12.80;46.06;102518.22;5054667;28;45331;-77
2022/03/22 06:23:15;;;;;;;;;29.00;23.50;;;;;12.60;46.46;102501.72;5054612;28;45338;-75
2022/03/22 06:25:41;;;;;;;;;21.75;20.50;;;;;12.71;46.31;102524.75;5057020;28;48201;-71
2022/03/22 06:28:09;;;;;;;;;25.75;21.75;;;;;12.73;46.52;102522.00;5057741;28;45371;-73
2022/03/22 06:30:36;;;;;;;;;24.00;23.00;;;;;12.68;46.29;102494.31;5057972;28;45248;-78
2022/03/22 06:33:11;;;;;;;;;29.75;23.75;;;;;12.77;46.73;102511.13;5059312;28;45226;-83
2022/03/22 06:35:37;;;;;;;;;27.25;24.25;;;;;12.83;45.74;102529.81;5041180;28;47434;-82
2022/03/22 06:38:03;;;;;;;;;35.75;27.50;;;;;12.72;45.95;102523.81;5056873;28;45344;-77
2022/03/22 06:40:33;;;;;;;;;27.25;24.75;;;;;12.80;45.73;102531.69;5057763;28;45584;-77
2022/03/22 06:43:00;;;;;;;;;31.00;22.50;;;;;12.75;45.43;102534.50;5057535;28;45345;-76
2022/03/22 06:45:25;;;;;;;;;32.00;27.00;;;;;12.68;45.55;102534.69;5057613;28;46162;-77
2022/03/22 06:47:51;;;;;;;;;31.25;23.50;;;;;12.71;45.47;102532.81;5056972;28;45354;-77
2022/03/22 06:50:19;;;;;;;;;25.25;20.75;;;;;12.70;45.98;102538.22;5057455;28;45360;-75
2022/03/22 06:52:45;;;;;;;;;28.00;25.00;;;;;12.70;45.85;102540.91;5057590;28;45629;-77
2022/03/22 06:55:13;;;;;;;;;29.75;21.75;;;;;12.60;45.67;102542.06;5055927;28;45389;-76
2022/03/22 06:57:39;;;;;;;;;22.00;20.75;;;;;12.57;46.04;102542.19;5035624;28;45245;-75
2022/03/22 07:00:08;;;;;;;;;22.00;18.75;;;;;12.63;45.65;102552.78;5057500;28;45340;-76
2022/03/22 07:02:35;;;;;;;;;32.00;25.75;;;;;12.58;45.47;102536.75;5056847;28;45405;-76
2022/03/22 07:05:04;;;;;;;;;27.25;25.00;;;;;12.61;44.96;102544.72;5056402;28;45484;-74
2022/03/22 07:07:30;;;;;;;;;29.75;25.75;;;;;12.52;45.17;102535.09;5055378;28;45483;-75
2022/03/22 07:09:55;;;;;;;;;31.75;26.50;;;;;12.47;45.64;102520.88;5056813;28;46031;-76
2022/03/22 07:12:20;;;;;;;;;22.75;18.25;;;;;12.59;45.10;102541.19;5056756;28;45353;-77
2022/03/22 07:14:46;;;;;;;;;33.75;25.50;;;;;12.64;45.49;102543.78;5056742;28;46349;-76
2022/03/22 07:17:11;;;;;;;;;32.75;28.00;;;;;12.67;45.13;102541.91;5056556;28;45414;-76
2022/03/22 07:19:37;;;;;;;;;27.75;26.50;;;;;12.62;44.76;102541.13;5057451;28;45895;-76
2022/03/22 07:22:05;;;;;;;;;32.50;23.00;;;;;12.64;44.59;102550.03;5056924;28;45362;-74
2022/03/22 07:24:30;;;;;;;;;22.75;22.00;;;;;12.66;44.83;102542.81;5057026;28;45516;-75
2022/03/22 07:26:56;;;;;;;;;39.00;30.75;;;;;12.65;45.16;102548.25;5056077;28;45306;-75
2022/03/22 07:29:21;;;;;;;;;33.75;27.75;;;;;12.69;45.22;102556.19;5057161;28;45541;-76
2022/03/22 07:31:47;;;;;;;;;30.00;27.00;;;;;12.71;44.73;102553.47;5037213;28;45306;-75
2022/03/22 07:34:15;;;;;;;;;34.00;27.50;;;;;12.77;44.81;102562.25;5056155;28;45377;-75
2022/03/22 07:36:46;;;;;;;;;32.50;26.50;;;;;12.87;44.53;102554.81;5056771;28;45419;-75
2022/03/22 07:39:13;;;;;;;;;28.25;26.50;;;;;12.95;44.84;102558.19;5056970;28;45264;-75
2022/03/22 07:41:39;;;;;;;;;26.75;26.75;;;;;13.00;44.52;102544.63;5056523;28;45314;-75
2022/03/22 07:44:06;;;;;;;;;31.75;27.00;;;;;13.05;44.30;102542.66;5056728;28;45176;-75
2022/03/22 07:46:32;;;;;;;;;30.25;24.50;;;;;13.15;43.86;102555.88;5056584;28;45311;-76
2022/03/22 07:52:58;;;;;;;;;32.75;26.75;;;;;13.13;43.72;102540.66;5056598;28;45519;-75
2022/03/22 07:54:28;;;;;;;;;30.00;27.25;;;;;13.30;43.58;102569.84;5056268;28;45539;-77
2022/03/22 07:56:54;;;;;;;;;38.75;28.25;;;;;13.32;43.71;102566.19;5056402;28;45319;-75
2022/03/22 07:59:19;;;;;;;;;35.75;27.50;;;;;13.36;43.29;102564.25;5056365;28;45417;-75
2022/03/22 08:01:44;;;;;;;;;27.25;26.75;;;;;13.40;43.46;102564.16;5056737;28;45614;-75
2022/03/22 08:04:10;;;;;;;;;30.50;26.50;;;;;13.39;42.94;102564.19;5056352;28;45415;-75
2022/03/22 08:06:35;;;;;;;;;43.00;31.75;;;;;13.43;43.56;102571.28;5056515;28;45410;-76
2022/03/22 08:09:00;;;;;;;;;37.50;30.50;;;;;13.44;43.28;102565.81;5054202;28;46018;-75
2022/03/22 08:11:26;;;;;;;;;35.50;30.25;;;;;13.46;43.29;102566.66;5055748;28;45409;-75
2022/03/22 08:13:51;;;;;;;;;35.00;30.75;;;;;13.56;43.04;102569.97;5056060;28;46322;-76
2022/03/22 08:16:17;;;;;;;;;32.50;30.25;;;;;13.56;42.20;102568.16;5055709;28;45316;-75
2022/03/22 08:18:42;;;;;;;;;39.50;30.25;;;;;13.61;42.58;102571.59;5054806;28;45473;-75
2022/03/22 08:21:07;;;;;;;;;33.75;27.50;;;;;13.66;42.10;102573.28;5056315;28;45475;-74
2022/03/22 08:23:33;;;;;;;;;31.25;30.50;;;;;13.67;41.81;102561.59;5037743;28;46484;-74
2022/03/22 08:25:58;;;;;;;;;39.25;29.00;;;;;13.75;41.54;102560.44;5056095;28;45410;-74
2022/03/22 08:28:24;;;;;;;;;27.75;23.50;;;;;13.85;40.98;102572.69;5056005;28;45432;-77
2022/03/22 08:30:49;;;;;;;;;29.50;29.50;;;;;13.89;40.17;102582.44;5055818;28;45515;-76
2022/03/22 08:33:15;;;;;;;;;29.00;28.00;;;;;13.86;40.62;102560.09;5055461;28;46123;-75
2022/03/22 08:35:45;;;;;;;;;30.50;28.00;;;;;14.01;40.06;102579.38;5056092;28;45508;-76
2022/03/22 08:38:12;;;;;;;;;32.00;29.00;;;;;14.09;39.76;102580.97;5055957;28;45385;-75
2022/03/22 08:40:37;;;;;;;;;31.50;26.00;;;;;14.10;38.18;102585.44;5055922;28;45375;-75
2022/03/22 08:43:06;;;;;;;;;26.75;25.50;;;;;14.08;36.37;102580.06;5055189;28;45909;-76
2022/03/22 08:45:33;;;;;;;;;31.75;26.00;;;;;14.09;37.35;102579.16;5055571;28;45362;-76
2022/03/22 08:48:01;;;;;;;;;31.50;25.75;;;;;14.10;36.35;102575.53;5055279;28;45405;-75
2022/03/22 08:50:26;;;;;;;;;25.75;23.75;;;;;14.16;35.50;102575.31;5055888;28;45449;-76
2022/03/22 08:52:57;;;;;;;;;31.25;22.75;;;;;14.13;32.23;102575.41;5055250;28;45499;-75
2022/03/22 08:55:23;;;;;;;;;22.00;21.00;;;;;14.17;32.89;102579.78;5056032;28;45361;-77
2022/03/22 08:57:49;;;;;;;;;27.25;20.00;;;;;14.14;32.30;102566.38;5055001;28;45445;-76
2022/03/22 09:00:17;;;;;;;;;23.50;19.75;;;;;14.14;31.30;102569.09;5056137;28;45380;-76
2022/03/22 09:02:45;;;;;;;;;19.25;18.00;;;;;14.24;30.79;102567.88;5055306;28;45619;-75
2022/03/22 09:07:58;;;;;;;;;18.25;17.00;;;;;14.19;29.60;102550.94;5055702;28;45563;-76
2022/03/22 09:10:24;;;;;;;;;22.75;19.75;;;;;14.27;28.92;102566.88;5055367;28;45346;-76
2022/03/22 09:12:49;;;;;;;;;12.75;12.25;;;;;14.32;28.27;102576.59;5055079;28;46178;-75
2022/03/22 09:15:16;;;;;;;;;19.75;16.25;;;;;14.35;27.73;102578.31;5055608;28;45337;-75
2022/03/22 09:17:42;;;;;;;;;26.25;17.75;;;;;14.31;27.14;102553.25;5055325;28;45264;-75
2022/03/22 09:20:12;;;;;;;;;20.00;16.75;;;;;14.41;28.11;102577.25;5055307;28;45415;-75
2022/03/22 09:22:37;;;;;;;;;20.75;19.25;;;;;14.38;27.45;102571.03;5055125;28;45185;-75
2022/03/22 09:25:03;;;;;;;;;20.25;16.75;;;;;14.43;27.37;102583.50;5055521;28;45604;-77
2022/03/22 09:27:28;;;;;;;;;20.25;17.25;;;;;14.50;27.39;102583.25;5054825;28;45456;-76
2022/03/22 09:29:54;;;;;;;;;19.75;17.50;;;;;14.52;27.25;102580.50;5055038;28;45385;-75
2022/03/22 09:32:20;;;;;;;;;19.75;17.00;;;;;14.52;26.86;102591.28;5054617;28;45317;-76
2022/03/22 09:34:45;;;;;;;;;20.25;17.00;;;;;14.57;26.76;102586.63;5055110;28;45293;-76
2022/03/22 09:37:11;;;;;;;;;18.25;16.25;;;;;14.37;25.97;102528.75;5055166;28;45341;-75
2022/03/22 09:39:37;;;;;;;;;17.25;13.75;;;;;14.62;25.76;102573.88;5055017;28;45396;-76
2022/03/22 09:42:03;;;;;;;;;16.50;16.00;;;;;14.62;26.29;102581.97;5054529;28;45342;-75
2022/03/22 09:44:30;;;;;;;;;15.50;12.00;;;;;14.58;24.82;102578.47;5054837;28;45418;-74
2022/03/22 09:46:56;;;;;;;;;18.75;17.50;;;;;14.68;26.02;102581.75;5054876;28;45238;-76
2022/03/22 09:49:21;;;;;;;;;22.50;17.50;;;;;14.69;26.24;102570.91;5054853;28;45371;-75
2022/03/22 09:51:50;;;;;;;;;21.75;18.50;;;;;14.82;26.02;102583.97;5054725;28;45392;-74
2022/03/22 09:54:19;;;;;;;;;18.25;14.25;;;;;14.89;25.17;102566.59;5054759;28;45519;-75
2022/03/22 09:56:46;;;;;;;;;16.00;16.00;;;;;14.88;24.73;102564.88;5041366;28;45240;-75
2022/03/22 09:59:12;;;;;;;;;15.25;14.75;;;;;14.91;25.73;102568.34;5054493;28;45442;-75
2022/03/22 10:01:38;;;;;;;;;20.25;15.50;;;;;15.03;26.91;102558.94;5054943;28;45303;-76
2022/03/22 10:04:12;;;;;;;;;21.25;17.00;;;;;15.04;26.15;102548.06;5054402;28;45357;-76
2022/03/22 10:06:38;;;;;;;;;19.50;18.25;;;;;15.22;26.35;102565.44;5054841;28;45409;-75
2022/03/22 10:09:08;;;;;;;;;23.50;19.25;;;;;15.28;26.26;102565.22;5036552;28;45517;-74
2022/03/22 10:11:37;;;;;;;;;25.75;17.50;;;;;15.34;26.04;102564.97;5054385;28;45497;-75
2022/03/22 10:14:03;;;;;;;;;13.75;12.50;;;;;15.36;26.04;102564.94;5053932;28;45679;-76
2022/03/22 10:16:29;;;;;;;;;17.75;16.25;;;;;15.33;25.22;102565.91;5052183;28;45454;-77
2022/03/22 10:18:54;;;;;;;;;21.50;17.50;;;;;15.38;24.84;102558.53;5052871;28;45718;-74
2022/03/22 10:21:20;;;;;;;;;19.50;15.25;;;;;15.35;25.16;102545.13;5054319;28;46047;-76
2022/03/22 10:23:53;;;;;;;;;16.25;13.75;;;;;15.52;24.92;102560.72;5036212;28;45383;-74
2022/03/22 10:26:20;;;;;;;;;15.00;13.00;;;;;15.46;24.35;102563.66;5054294;28;45460;-76
2022/03/22 10:28:54;;;;;;;;;16.50;15.25;;;;;15.45;24.65;102559.19;5054340;28;45488;-74
2022/03/22 10:31:31;;;;;;;;;12.50;11.25;;;;;15.59;25.01;102564.09;5054212;28;46209;-76
2022/03/22 10:33:57;;;;;;;;;16.00;15.50;;;;;15.68;26.20;102545.69;5054309;28;45440;-76
2022/03/22 10:36:22;;;;;;;;;14.75;13.25;;;;;15.79;25.97;102542.59;5054411;28;45276;-77
2022/03/22 10:38:57;;;;;;;;;17.50;16.00;;;;;15.89;25.10;102544.88;5054180;28;45438;-76
2022/03/22 10:41:31;;;;;;;;;20.00;13.75;;;;;15.92;25.54;102549.25;5053745;28;45400;-75
2022/03/22 10:44:05;;;;;;;;;15.00;12.75;;;;;15.98;25.79;102545.47;5053569;28;45483;-77
2022/03/22 10:46:31;;;;;;;;;18.00;16.75;;;;;16.08;24.62;102545.00;5054407;28;45676;-76
2022/03/22 10:49:08;;;;;;;;;18.75;16.00;;;;;16.09;24.27;102540.47;5053802;28;45350;-76
2022/03/22 10:51:43;;;;;;;;;16.75;15.00;;;;;16.05;24.63;102544.25;5053979;28;45912;-76
2022/03/22 10:54:12;;;;;;;;;20.75;15.00;;;;;16.11;24.35;102549.41;5053921;28;45330;-79
2022/03/22 10:56:51;;;;;;;;;15.00;15.00;;;;;16.20;25.04;102530.09;5054111;28;45333;-75
2022/03/22 10:59:19;;;;;;;;;17.50;17.50;;;;;16.32;24.64;102529.63;5055166;28;45481;-78
2022/03/22 11:01:46;;;;;;;;;18.00;17.50;;;;;16.26;23.96;102508.19;5032936;28;47970;-77
2022/03/22 11:04:16;;;;;;;;;16.00;16.00;;;;;16.49;25.20;102527.09;5048909;28;45394;-81
2022/03/22 11:06:46;;;;;;;;;17.50;15.25;;;;;16.62;24.20;102524.75;5054784;28;45436;-75
2022/03/22 11:09:16;;;;;;;;;20.50;17.25;;;;;16.76;24.13;102514.19;5054205;28;45239;-79
2022/03/22 11:11:43;;;;;;;;;20.75;17.75;;;;;16.98;24.73;102509.63;5056566;28;45476;-77
2022/03/22 11:14:12;;;;;;;;;15.75;14.25;;;;;17.18;23.78;102527.66;5057580;28;45560;-74
2022/03/22 11:16:39;;;;;;;;;15.25;13.50;;;;;17.25;23.72;102514.75;5057731;28;45213;-77
2022/03/22 11:19:05;;;;;;;;;19.50;16.00;;;;;17.49;23.49;102518.16;5057105;28;45701;-77
2022/03/22 11:21:31;;;;;;;;;18.75;17.00;;;;;17.62;22.32;102506.66;5055797;28;45559;-77
2022/03/22 11:24:07;;;;;;;;;16.50;15.50;;;;;17.77;23.41;102510.50;5059791;28;45385;-79
2022/03/22 11:26:46;;;;;;;;;17.50;16.25;;;;;18.10;23.58;102519.72;5062310;28;45336;-75
2022/03/22 11:29:14;;;;;;;;;19.50;16.00;;;;;18.41;22.56;102508.19;5044024;28;45381;-75
2022/03/22 11:31:41;;;;;;;;;14.00;14.00;;;;;18.67;22.74;102506.91;5056856;28;46600;-74
2022/03/22 11:34:12;;;;;;;;;17.75;15.00;;;;;18.90;22.35;102498.41;5056833;28;45306;-74
2022/03/22 11:36:46;;;;;;;;;19.25;17.75;;;;;19.18;21.74;102495.09;5056830;28;45403;-75
2022/03/22 11:39:19;;;;;;;;;21.00;14.00;;;;;19.51;22.17;102500.56;5057093;28;45279;-75
2022/03/22 11:44:35;;;;;;;;;19.75;15.25;;;;;20.20;20.96;102486.63;5056625;28;45559;-76
2022/03/22 11:47:04;;;;;;;;;19.00;16.75;;;;;20.64;20.11;102478.56;5057081;28;45345;-78
2022/03/22 11:49:30;;;;;;;;;19.50;14.75;;;;;21.07;20.13;102485.00;5056723;28;45265;-75
2022/03/22 11:52:12;;;;;;;;;19.00;16.50;;;;;21.44;18.66;102471.75;5056464;28;46164;-75
2022/03/22 11:54:39;;;;;;;;;21.25;17.50;;;;;21.56;18.47;102475.56;5056341;28;45422;-73
2022/03/22 11:57:06;;;;;;;;;15.00;15.00;;;;;21.74;18.42;102469.78;5056746;28;45208;-77
2022/03/22 11:59:41;;;;;;;;;18.00;17.75;;;;;22.07;18.85;102472.19;5057065;28;46780;-75
2022/03/22 12:02:12;;;;;;;;;19.50;16.00;;;;;22.60;18.89;102462.19;5056351;28;46598;-77
2022/03/22 12:04:50;;;;;;;;;18.50;16.25;;;;;22.97;18.50;102466.84;5056442;28;45477;-75
2022/03/22 12:07:21;;;;;;;;;20.25;16.00;;;;;23.28;19.20;102440.03;5056413;28;45172;-75
2022/03/22 12:09:46;;;;;;;;;20.00;18.25;;;;;23.72;18.73;102453.25;5056476;28;45284;-72
2022/03/22 12:12:16;;;;;;;;;22.75;20.50;;;;;23.99;18.56;102447.53;5056024;28;45506;-76
2022/03/22 12:14:45;;;;;;;;;22.00;20.25;;;;;24.38;18.64;102450.03;5054679;28;45544;-77
2022/03/22 12:17:11;;;;;;;;;20.00;18.00;;;;;24.67;18.65;102442.25;5055679;28;45295;-77
2022/03/22 12:19:37;;;;;;;;;56.25;41.50;;;;;25.04;18.03;102440.25;5056207;28;45334;-76
2022/03/22 12:22:08;;;;;;;;;59.50;45.50;;;;;25.61;18.14;102447.53;5055878;28;45491;-75
2022/03/22 12:24:34;;;;;;;;;17.00;15.50;;;;;26.39;17.47;102422.59;5034629;28;45340;-78
2022/03/22 12:27:03;;;;;;;;;25.00;17.75;;;;;27.20;16.85;102438.38;5050452;28;45325;-76
2022/03/22 12:29:29;;;;;;;;;25.50;18.50;;;;;27.81;15.75;102433.72;5056059;28;45211;-75
2022/03/22 12:31:56;;;;;;;;;19.50;17.75;;;;;28.39;15.78;102422.78;5055559;28;45535;-76
2022/03/22 12:34:28;;;;;;;;;21.00;18.25;;;;;29.10;15.80;102427.88;5056153;28;45223;-78
2022/03/22 12:36:53;;;;;;;;;19.00;18.25;;;;;29.78;14.76;102401.69;5056037;28;45767;-77
2022/03/22 12:39:19;;;;;;;;;22.25;18.25;;;;;30.47;14.72;102412.97;5055869;28;45520;-76
2022/03/22 12:41:45;;;;;;;;;19.00;14.00;;;;;31.07;14.05;102404.81;5055463;28;45305;-77
2022/03/22 12:44:10;;;;;;;;;19.75;18.25;;;;;31.68;14.27;102397.34;5034071;28;45431;-76
2022/03/22 12:46:36;;;;;;;;;23.00;20.25;;;;;32.40;13.34;102395.78;5051563;28;45336;-76
2022/03/22 12:49:03;;;;;;;;;19.00;16.75;;;;;32.88;13.19;102395.75;5055810;28;45438;-76
2022/03/22 12:51:31;;;;;;;;;20.50;12.50;;;;;33.32;12.67;102395.31;5055762;28;45366;-74
2022/03/22 12:53:57;;;;;;;;;20.75;19.75;;;;;33.63;12.45;102389.75;5055377;28;45330;-77
2022/03/22 12:56:23;;;;;;;;;19.50;19.50;;;;;34.06;11.88;102380.84;5055372;28;45336;-77
2022/03/22 12:58:49;;;;;;;;;19.00;18.00;;;;;34.20;11.58;102386.66;5055672;28;45458;-77
2022/03/22 13:01:16;;;;;;;;;18.50;17.00;;;;;34.57;11.72;102370.00;5055503;28;45323;-77
2022/03/22 13:03:43;;;;;;;;;17.00;17.00;;;;;34.79;11.60;102373.81;5055372;28;45255;-78
2022/03/22 13:06:08;;;;;;;;;16.00;14.75;;;;;35.08;11.09;102353.44;5055384;28;45471;-75
2022/03/22 13:11:29;;;;;;;;;19.25;17.50;;;;;35.60;10.74;102362.53;5041733;28;45515;-76
2022/03/22 13:16:40;;;;;;;;;18.00;17.00;;;;;35.98;10.65;102334.47;5055433;28;45452;-78
2022/03/22 13:19:06;;;;;;;;;16.00;15.00;;;;;36.31;10.38;102348.75;5036986;28;46377;-78
2022/03/22 13:21:37;;;;;;;;;18.25;18.25;;;;;36.45;10.26;102345.00;5055379;28;45822;-77
2022/03/22 13:24:11;;;;;;;;;17.50;16.50;;;;;36.63;10.34;102353.75;5055275;28;45486;-78
2022/03/22 13:26:39;;;;;;;;;20.00;19.00;;;;;36.68;10.02;102340.06;5054871;28;45242;-78
2022/03/22 13:29:16;;;;;;;;;15.25;15.25;;;;;36.71;10.07;102339.66;5055095;28;45389;-76
2022/03/22 13:31:59;;;;;;;;;16.25;15.25;;;;;36.74;10.15;102335.59;5054743;28;45457;-78
2022/03/22 13:34:27;;;;;;;;;17.00;16.25;;;;;36.88;10.16;102331.81;5054979;28;45307;-77
2022/03/22 13:37:13;;;;;;;;;16.25;15.25;;;;;37.06;10.21;102337.72;5054658;28;45362;-76
2022/03/22 13:39:41;;;;;;;;;19.50;17.25;;;;;37.04;9.91;102328.69;5054697;28;45266;-77
2022/03/22 13:42:27;;;;;;;;;18.25;15.00;;;;;36.76;10.01;102317.53;5054868;28;45450;-78
2022/03/22 13:44:56;;;;;;;;;17.25;16.25;;;;;36.72;10.49;102329.34;5050493;28;45334;-77
2022/03/22 13:47:35;;;;;;;;;18.00;16.00;;;;;36.74;10.40;102328.09;5054589;28;45256;-77
2022/03/22 13:50:10;;;;;;;;;18.50;17.50;;;;;36.60;10.35;102331.78;5054635;28;45467;-77
2022/03/22 13:52:36;;;;;;;;;17.00;17.00;;;;;36.65;10.51;102318.09;5054544;28;46967;-76
2022/03/22 13:55:12;;;;;;;;;18.75;18.75;;;;;36.74;10.50;102308.50;5054624;28;45235;-77
2022/03/22 13:57:39;;;;;;;;;18.25;16.00;;;;;36.72;10.35;102316.22;5054920;28;45394;-77
2022/03/22 14:00:06;;;;;;;;;18.75;17.50;;;;;36.66;10.33;102302.19;5054792;28;45360;-75
2022/03/22 14:02:31;;;;;;;;;15.00;13.50;;;;;36.63;10.59;102313.75;5053952;28;45398;-77
2022/03/22 14:04:57;;;;;;;;;14.50;14.00;;;;;36.30;10.61;102296.75;5055076;28;45328;-77
2022/03/22 14:07:22;;;;;;;;;18.50;17.50;;;;;36.37;10.87;102301.31;5054486;28;45681;-75
2022/03/22 14:09:49;;;;;;;;;17.25;15.00;;;;;36.35;10.59;102300.66;5054722;28;45236;-77
2022/03/22 14:12:14;;;;;;;;;15.75;14.25;;;;;36.27;10.93;102303.59;5054164;28;45205;-78
2022/03/22 14:14:40;;;;;;;;;16.50;15.50;;;;;36.36;11.07;102304.31;5054604;28;46062;-79
2022/03/22 14:17:05;;;;;;;;;16.75;14.00;;;;;36.17;10.45;102286.28;5054570;28;45338;-79
2022/03/22 14:19:30;;;;;;;;;20.00;17.50;;;;;36.06;10.69;102297.16;5054626;28;46622;-77
2022/03/22 14:21:56;;;;;;;;;18.00;17.00;;;;;35.80;10.45;102293.06;5054431;28;46032;-76
2022/03/22 14:24:21;;;;;;;;;17.50;14.75;;;;;35.40;10.70;102269.38;5054273;28;45374;-77
2022/03/22 14:26:46;;;;;;;;;16.25;15.25;;;;;35.54;10.82;102282.44;5054301;28;45649;-76
2022/03/22 14:29:12;;;;;;;;;18.50;16.75;;;;;35.52;11.08;102298.50;5053993;28;45425;-77
2022/03/22 14:31:39;;;;;;;;;17.00;15.00;;;;;35.50;10.36;102285.78;5054260;28;46147;-76
2022/03/22 14:34:05;;;;;;;;;14.50;14.50;;;;;35.49;10.59;102286.84;5054102;28;45478;-77
2022/03/22 14:36:30;;;;;;;;;15.75;15.00;;;;;35.44;10.42;102283.81;5054576;28;45410;-75
2022/03/22 14:38:55;;;;;;;;;17.00;16.25;;;;;35.23;10.88;102274.31;5054112;28;45305;-77
2022/03/22 14:41:27;;;;;;;;;16.75;16.25;;;;;35.19;10.92;102267.41;5032432;28;46068;-78
2022/03/22 14:43:54;;;;;;;;;17.75;17.75;;;;;35.16;10.93;102255.75;5054035;28;45327;-76
2022/03/22 14:46:21;;;;;;;;;12.00;10.50;;;;;34.97;11.02;102262.78;5057553;28;45380;-77
2022/03/22 14:48:49;;;;;;;;;19.50;16.00;;;;;34.48;10.84;102273.63;5057621;28;45377;-77
2022/03/22 14:51:18;;;;;;;;;15.25;14.25;;;;;34.20;11.10;102253.03;5057410;28;45402;-76
2022/03/22 14:59:11;;;;;;;;;18.75;15.50;;;;;33.63;10.85;102243.22;5057462;28;45460;-77
2022/03/22 15:01:37;;;;;;;;;17.00;16.75;;;;;33.61;10.69;102259.22;5057042;28;46334;-77
2022/03/22 15:04:03;;;;;;;;;18.00;16.00;;;;;33.52;11.41;102256.69;5057235;28;45509;-76
2022/03/22 15:06:29;;;;;;;;;19.25;17.50;;;;;33.25;11.71;102269.19;5057523;28;45291;-78
2022/03/22 15:08:54;;;;;;;;;21.50;18.50;;;;;32.97;11.88;102266.00;5057634;28;45558;-77
2022/03/22 15:11:21;;;;;;;;;17.75;16.00;;;;;32.51;12.67;102262.13;5057019;28;46522;-77
2022/03/22 15:13:49;;;;;;;;;16.00;14.00;;;;;32.02;12.55;102258.50;5057321;28;45544;-77
2022/03/22 15:16:16;;;;;;;;;16.25;15.25;;;;;31.76;13.52;102264.22;5057335;28;45354;-76
2022/03/22 15:18:42;;;;;;;;;15.75;14.75;;;;;31.57;13.54;102257.06;5056938;28;45359;-78
2022/03/22 15:21:09;;;;;;;;;18.00;16.00;;;;;31.36;13.85;102260.34;5056890;28;46293;-78
2022/03/22 15:23:35;;;;;;;;;20.00;18.75;;;;;31.10;13.26;102245.72;5056983;28;45370;-75
2022/03/22 15:26:00;;;;;;;;;17.00;15.00;;;;;30.70;13.96;102263.00;5056624;28;45377;-77
2022/03/22 15:28:26;;;;;;;;;22.25;20.25;;;;;30.33;13.88;102241.97;5057030;28;45536;-77
2022/03/22 15:30:51;;;;;;;;;16.00;16.00;;;;;30.08;13.81;102235.41;5056783;28;45487;-76
2022/03/22 15:33:17;;;;;;;;;17.25;17.25;;;;;29.92;13.98;102248.22;5057010;28;45461;-76
2022/03/22 15:35:44;;;;;;;;;22.25;19.50;;;;;29.82;14.01;102245.53;5056834;28;45434;-79
2022/03/22 15:38:10;;;;;;;;;25.75;23.25;;;;;29.74;14.44;102239.94;5056922;28;45299;-76
2022/03/22 15:40:36;;;;;;;;;19.75;18.00;;;;;29.71;14.17;102238.34;5056493;28;45600;-77
2022/03/22 15:43:02;;;;;;;;;21.50;18.75;;;;;29.71;13.78;102227.28;5056444;28;45449;-77
2022/03/22 15:45:28;;;;;;;;;17.25;15.00;;;;;29.75;14.29;102238.03;5056858;28;45312;-78
2022/03/22 15:47:54;;;;;;;;;22.25;21.50;;;;;29.83;14.39;102233.44;5056479;28;45475;-76
2022/03/22 15:50:27;;;;;;;;;23.75;22.00;;;;;29.93;14.44;102241.66;5056740;28;46109;-76
2022/03/22 15:52:54;;;;;;;;;18.00;16.00;;;;;29.85;14.05;102234.16;5056350;28;45311;-75
2022/03/22 15:55:19;;;;;;;;;22.00;21.00;;;;;29.79;14.46;102234.78;5056499;28;45406;-77
2022/03/22 15:57:44;;;;;;;;;17.50;16.75;;;;;29.69;14.87;102226.56;5056323;28;45551;-76
2022/03/22 16:00:12;;;;;;;;;16.25;15.25;;;;;29.72;14.14;102245.63;5056639;28;46296;-76
2022/03/22 16:02:39;;;;;;;;;23.25;20.00;;;;;29.44;14.66;102191.44;5056549;28;45372;-77
2022/03/22 16:05:05;;;;;;;;;21.00;17.25;;;;;29.50;14.31;102232.28;5056895;28;45353;-75
2022/03/22 16:07:31;;;;;;;;;19.00;18.25;;;;;29.38;14.51;102236.28;5056171;28;45189;-77
2022/03/22 16:09:56;;;;;;;;;19.25;18.75;;;;;29.27;14.91;102215.25;5056526;28;45212;-77
2022/03/22 16:12:23;;;;;;;;;18.75;15.50;;;;;29.40;14.83;102234.25;5056051;28;45294;-77
2022/03/22 16:14:51;;;;;;;;;26.00;21.50;;;;;29.26;15.10;102241.13;5056458;28;45323;-77
2022/03/22 16:17:17;;;;;;;;;18.25;16.00;;;;;29.14;15.25;102241.53;5056073;28;45310;-77
2022/03/22 16:19:43;;;;;;;;;23.50;19.00;;;;;29.09;15.81;102246.66;5056100;28;46008;-76
2022/03/22 16:22:08;;;;;;;;;21.50;18.25;;;;;28.87;15.63;102239.63;5056186;28;45326;-77
2022/03/22 16:24:35;;;;;;;;;23.00;19.25;;;;;28.72;15.64;102241.13;5056420;28;45323;-75
2022/03/22 16:27:01;;;;;;;;;15.75;15.50;;;;;28.66;15.85;102256.44;5055981;28;45571;-76
2022/03/22 16:29:27;;;;;;;;;21.25;20.25;;;;;28.48;16.38;102249.97;5056343;28;47443;-75
2022/03/22 16:31:52;;;;;;;;;24.75;21.00;;;;;28.34;16.43;102244.91;5055892;28;45415;-77
2022/03/22 16:37:04;;;;;;;;;19.25;18.00;;;;;28.09;16.73;102246.38;5056044;28;45379;-78
2022/03/22 16:39:29;;;;;;;;;17.75;15.75;;;;;27.87;16.49;102247.59;5055833;28;45325;-77
2022/03/22 16:41:57;;;;;;;;;19.25;17.00;;;;;27.71;17.06;102250.06;5055676;28;45534;-76
2022/03/22 16:44:31;;;;;;;;;22.75;22.25;;;;;27.51;17.61;102246.38;5056160;28;45395;-77
2022/03/22 16:46:58;;;;;;;;;17.75;14.50;;;;;27.33;17.44;102253.59;5037585;28;46238;-77
2022/03/22 16:49:23;;;;;;;;;20.00;19.00;;;;;27.02;17.55;102230.81;5055890;28;45959;-79
2022/03/22 16:51:48;;;;;;;;;18.50;18.00;;;;;26.83;18.04;102236.22;5055664;28;45433;-78
2022/03/22 16:54:14;;;;;;;;;25.00;22.50;;;;;26.59;18.62;102245.69;5055736;28;45437;-76
2022/03/22 16:56:39;;;;;;;;;25.25;21.25;;;;;26.38;18.86;102262.22;5055561;28;45501;-76
2022/03/22 16:59:06;;;;;;;;;24.25;19.75;;;;;26.12;18.61;102246.22;5055641;28;45321;-76
2022/03/22 17:01:31;;;;;;;;;28.75;22.00;;;;;25.94;19.11;102255.13;5055455;28;45366;-77
2022/03/22 17:03:57;;;;;;;;;28.75;21.50;;;;;25.70;19.12;102240.72;5033981;28;45575;-76